createdAt,value
2022-09-12T00:01:36.118Z,83.81
2022-09-12T00:04:03.080Z,83.72
2022-09-12T00:06:37.531Z,83.56
2022-09-12T00:09:10.755Z,83.79
2022-09-12T00:11:41.691Z,83.56
2022-09-12T00:14:10.448Z,83.86
2022-09-12T00:16:38.049Z,83.77
2022-09-12T00:19:06.504Z,83.47
2022-09-12T00:21:34.756Z,83.92
2022-09-12T00:24:01.879Z,83.43
2022-09-12T00:26:28.738Z,83.82
2022-09-12T00:28:55.386Z,83.95
2022-09-12T00:31:25.016Z,84.01
2022-09-12T00:33:52.779Z,84.19
2022-09-12T00:36:21.263Z,84.42
2022-09-12T00:38:49.710Z,84.30
2022-09-12T00:41:21.881Z,83.92
2022-09-12T00:43:51.587Z,84.23
2022-09-12T00:46:34.389Z,83.32
2022-09-12T00:49:14.091Z,83.41
2022-09-12T00:51:47.376Z,83.36
2022-09-12T00:54:19.271Z,84.17
2022-09-12T00:56:47.448Z,84.66
2022-09-12T00:59:32.102Z,85.03
2022-09-12T01:01:58.793Z,84.17
2022-09-12T01:04:28.041Z,84.83
2022-09-12T01:06:57.033Z,84.80
2022-09-12T01:09:25.728Z,84.29
2022-09-12T01:11:53.583Z,85.01
2022-09-12T01:14:20.986Z,84.42
2022-09-12T01:16:49.918Z,84.90
2022-09-12T01:19:35.277Z,85.13
2022-09-12T01:22:28.541Z,84.79
2022-09-12T01:25:10.159Z,84.38
2022-09-12T01:27:47.937Z,84.60
2022-09-12T01:30:31.245Z,84.43
2022-09-12T01:33:20.236Z,84.42
2022-09-12T01:36:08.765Z,84.14
2022-09-12T01:38:40.360Z,84.33
2022-09-12T01:41:23.166Z,84.12
2022-09-12T01:43:58.234Z,83.64
2022-09-12T01:46:40.271Z,83.65
2022-09-12T01:49:23.444Z,83.76
2022-09-12T01:52:18.479Z,83.95
2022-09-12T01:54:53.667Z,83.85
2022-09-12T01:57:36.447Z,84.09
2022-09-12T02:00:09.296Z,84.09
2022-09-12T02:02:51.992Z,84.20
2022-09-12T02:05:36.484Z,84.09
2022-09-12T02:08:18.925Z,84.25
2022-09-12T02:10:53.736Z,84.12
2022-09-12T02:13:36.637Z,83.34
2022-09-12T02:16:17.854Z,83.13
2022-09-12T02:18:50.120Z,83.31
2022-09-12T02:21:19.218Z,82.99
2022-09-12T02:23:51.131Z,83.16
2022-09-12T02:26:34.927Z,83.27
2022-09-12T02:29:02.861Z,83.12
2022-09-12T02:31:37.440Z,83.03
2022-09-12T02:34:13.927Z,83.05
2022-09-12T02:36:52.107Z,82.81
2022-09-12T02:39:20.200Z,82.57
2022-09-12T02:41:50.754Z,83.10
2022-09-12T02:44:17.897Z,83.04
2022-09-12T02:46:48.698Z,82.97
2022-09-12T02:49:16.772Z,82.98
2022-09-12T02:51:44.251Z,83.67
2022-09-12T02:54:11.833Z,83.67
2022-09-12T02:56:41.652Z,82.91
2022-09-12T02:59:11.839Z,82.85
2022-09-12T03:01:49.513Z,82.63
2022-09-12T03:04:31.910Z,82.72
2022-09-12T03:07:21.600Z,82.53
2022-09-12T03:09:54.732Z,83.01
2022-09-12T03:12:30.357Z,83.04
2022-09-12T03:15:11.575Z,83.06
2022-09-12T03:17:56.599Z,83.28
2022-09-12T03:20:44.466Z,83.58
2022-09-12T03:23:26.217Z,83.60
2022-09-12T03:26:09.507Z,83.80
2022-09-12T03:28:39.464Z,84.03
2022-09-12T03:31:17.404Z,84.23
2022-09-12T03:33:44.475Z,84.15
2022-09-12T03:36:22.744Z,84.74
2022-09-12T03:38:49.683Z,84.52
2022-09-12T03:41:16.232Z,84.96
2022-09-12T03:43:42.910Z,85.41
2022-09-12T03:46:09.612Z,85.04
2022-09-12T03:48:36.584Z,85.11
2022-09-12T03:51:04.832Z,85.60
2022-09-12T03:53:31.657Z,85.83
2022-09-12T03:55:58.526Z,86.10
2022-09-12T03:58:29.548Z,86.15
2022-09-12T04:00:56.123Z,86.28
2022-09-12T04:03:22.782Z,86.19
2022-09-12T04:05:49.341Z,85.90
2022-09-12T04:08:15.916Z,85.80
2022-09-12T04:10:42.561Z,85.57
2022-09-12T04:13:09.102Z,85.56
2022-09-12T04:15:35.628Z,85.32
2022-09-12T04:18:05.757Z,84.88
2022-09-12T04:20:33.015Z,84.64
2022-09-12T04:22:59.560Z,84.96
2022-09-12T04:25:27.186Z,85.15
2022-09-12T04:27:53.768Z,84.79
2022-09-12T04:30:20.291Z,84.78
2022-09-12T04:32:46.851Z,84.66
2022-09-12T04:35:14.065Z,84.55
2022-09-12T04:37:40.657Z,84.55
2022-09-12T04:40:07.863Z,84.60
2022-09-12T04:42:34.429Z,84.55
2022-09-12T04:45:00.971Z,85.13
2022-09-12T04:47:28.296Z,84.74
2022-09-12T04:49:54.807Z,85.01
2022-09-12T04:52:21.415Z,84.84
2022-09-12T04:54:48.267Z,84.71
2022-09-12T04:57:14.849Z,84.87
2022-09-12T04:59:41.544Z,84.93
2022-09-12T05:02:08.381Z,84.86
2022-09-12T05:04:35.960Z,84.81
2022-09-12T05:07:03.165Z,85.00
2022-09-12T05:09:29.714Z,85.11
2022-09-12T05:12:04.937Z,85.00
2022-09-12T05:14:33.080Z,85.09
2022-09-12T05:17:01.561Z,85.20
2022-09-12T05:19:30.169Z,85.44
2022-09-12T05:21:56.926Z,85.77
2022-09-12T05:24:24.630Z,85.86
2022-09-12T05:26:51.544Z,85.79
2022-09-12T05:29:18.342Z,85.78
2022-09-12T05:31:44.925Z,85.81
2022-09-12T05:34:11.511Z,85.41
2022-09-12T05:36:38.656Z,85.52
2022-09-12T05:39:05.884Z,85.79
2022-09-12T05:41:33.986Z,85.77
2022-09-12T05:44:02.992Z,86.10
2022-09-12T05:46:32.260Z,86.01
2022-09-12T05:49:03.978Z,86.28
2022-09-12T05:51:34.626Z,86.57
2022-09-12T05:54:06.030Z,86.12
2022-09-12T05:56:33.542Z,86.08
2022-09-12T05:59:02.996Z,85.92
2022-09-12T06:01:31.400Z,86.16
2022-09-12T06:04:00.934Z,86.50
2022-09-12T06:06:29.352Z,86.52
2022-09-12T06:09:01.221Z,86.81
2022-09-12T06:11:29.977Z,86.37
2022-09-12T06:13:58.113Z,86.50
2022-09-12T06:16:27.461Z,87.46
2022-09-12T06:18:56.449Z,87.23
2022-09-12T06:21:25.328Z,87.50
2022-09-12T06:23:54.117Z,87.36
2022-09-12T06:26:23.526Z,87.60
2022-09-12T06:28:50.564Z,87.52
2022-09-12T06:31:21.229Z,87.30
2022-09-12T06:33:50.484Z,87.27
2022-09-12T06:36:29.020Z,87.36
2022-09-12T06:39:01.039Z,87.94
2022-09-12T06:41:29.083Z,88.18
2022-09-12T06:43:55.763Z,88.68
2022-09-12T06:46:22.738Z,88.43
2022-09-12T06:48:50.545Z,88.51
2022-09-12T06:51:19.998Z,89.30
2022-09-12T06:53:47.894Z,89.30
2022-09-12T06:56:15.651Z,89.44
2022-09-12T06:58:43.273Z,89.68
2022-09-12T07:01:12.672Z,89.71
2022-09-12T07:03:41.134Z,89.57
2022-09-12T07:06:12.990Z,89.69
2022-09-12T07:08:41.058Z,89.52
2022-09-12T07:11:18.247Z,89.05
2022-09-12T07:13:47.250Z,88.86
2022-09-12T07:16:19.211Z,88.64
2022-09-12T07:18:51.131Z,88.46
2022-09-12T07:21:17.708Z,88.01
2022-09-12T07:23:45.541Z,87.54
2022-09-12T07:26:13.506Z,87.00
2022-09-12T07:28:40.403Z,86.91
2022-09-12T07:31:12.354Z,86.34
2022-09-12T07:33:39.746Z,86.28
2022-09-12T07:36:11.895Z,86.01
2022-09-12T07:38:39.424Z,85.74
2022-09-12T07:41:19.793Z,85.08
2022-09-12T07:43:47.418Z,84.74
2022-09-12T07:46:15.002Z,84.22
2022-09-12T07:48:41.617Z,83.80
2022-09-12T07:51:10.221Z,83.14
2022-09-12T07:53:39.290Z,82.53
2022-09-12T07:56:07.778Z,81.73
2022-09-12T07:58:36.602Z,81.34
2022-09-12T08:01:14.829Z,81.16
2022-09-12T08:03:42.707Z,80.77
2022-09-12T08:06:15.246Z,80.59
2022-09-12T08:08:42.590Z,80.34
2022-09-12T08:11:12.123Z,80.42
2022-09-12T08:13:40.192Z,80.32
2022-09-12T08:16:15.467Z,79.73
2022-09-12T08:18:42.224Z,79.55
2022-09-12T08:21:14.002Z,78.88
2022-09-12T08:23:41.131Z,78.47
2022-09-12T08:26:08.279Z,78.08
2022-09-12T08:28:35.845Z,78.09
2022-09-12T08:31:11.361Z,77.71
2022-09-12T08:33:38.494Z,76.98
2022-09-12T08:36:11.598Z,76.32
2022-09-12T08:38:40.960Z,76.31
2022-09-12T08:41:28.934Z,75.81
2022-09-12T08:43:56.951Z,75.49
2022-09-12T08:46:31.724Z,74.75
2022-09-12T08:49:01.302Z,74.16
2022-09-12T08:51:29.405Z,73.86
2022-09-12T08:53:57.839Z,73.93
2022-09-12T08:56:31.694Z,73.39
2022-09-12T08:58:59.382Z,72.70
2022-09-12T09:01:35.660Z,72.69
2022-09-12T09:04:13.353Z,72.42
2022-09-12T09:07:08.442Z,71.51
2022-09-12T09:09:50.286Z,70.62
2022-09-12T09:12:26.272Z,69.96
2022-09-12T09:15:26.296Z,70.03
2022-09-12T09:18:00.466Z,69.93
2022-09-12T09:20:36.597Z,70.13
2022-09-12T09:23:39.239Z,69.53
2022-09-12T09:26:13.798Z,69.17
2022-09-12T09:28:53.163Z,69.20
2022-09-12T09:31:25.574Z,68.75
2022-09-12T09:33:55.538Z,68.23
2022-09-12T09:36:44.292Z,67.10
2022-09-12T09:39:13.560Z,66.64
2022-09-12T09:42:03.782Z,66.60
2022-09-12T09:44:31.344Z,65.76
2022-09-12T09:46:59.885Z,65.19
2022-09-12T09:49:30.230Z,64.79
2022-09-12T09:52:00.802Z,64.66
2022-09-12T09:54:39.034Z,64.67
2022-09-12T09:57:34.537Z,63.71
2022-09-12T10:00:27.715Z,63.93
2022-09-12T10:03:13.513Z,63.42
2022-09-12T10:05:55.336Z,62.98
2022-09-12T10:08:26.812Z,62.95
2022-09-12T10:11:16.217Z,62.20
2022-09-12T10:13:54.585Z,61.83
2022-09-12T10:16:23.014Z,61.99
2022-09-12T10:18:52.450Z,62.38
2022-09-12T10:21:47.512Z,61.90
2022-09-12T10:24:25.835Z,61.74
2022-09-12T10:27:08.343Z,61.13
2022-09-12T10:29:46.504Z,60.87
2022-09-12T10:32:40.091Z,60.47
2022-09-12T10:35:31.319Z,60.18
2022-09-12T10:38:00.125Z,60.05
2022-09-12T10:40:30.547Z,59.88
2022-09-12T10:43:02.761Z,59.95
2022-09-12T10:45:30.492Z,59.16
2022-09-12T10:48:03.103Z,58.68
2022-09-12T10:50:41.226Z,58.57
2022-09-12T10:53:21.847Z,58.42
2022-09-12T10:56:09.775Z,57.73
2022-09-12T10:58:40.893Z,57.69
2022-09-12T11:01:44.269Z,57.35
2022-09-12T11:04:19.975Z,56.54
2022-09-12T11:06:57.156Z,56.09
2022-09-12T11:09:39.383Z,55.42
2022-09-12T11:12:38.299Z,55.24
2022-09-12T11:15:27.376Z,54.81
2022-09-12T11:18:21.017Z,54.41
2022-09-12T11:21:15.344Z,53.48
2022-09-12T11:23:57.486Z,53.27
2022-09-12T11:27:02.766Z,53.18
2022-09-12T11:29:47.896Z,52.98
2022-09-12T11:32:48.602Z,52.55
2022-09-12T11:35:27.633Z,51.78
2022-09-12T11:38:09.471Z,52.05
2022-09-12T11:40:54.252Z,50.59
2022-09-12T11:43:46.201Z,50.10
2022-09-12T11:46:34.812Z,48.03
2022-09-12T11:49:13.645Z,48.55
2022-09-12T11:51:46.377Z,48.09
2022-09-12T11:54:40.914Z,47.55
2022-09-12T11:57:25.559Z,46.50
2022-09-12T11:59:55.986Z,45.60
2022-09-12T12:02:31.388Z,46.36
2022-09-12T12:05:24.826Z,45.24
2022-09-12T12:07:55.538Z,44.69
2022-09-12T12:10:31.050Z,44.20
2022-09-12T12:13:00.902Z,45.44
2022-09-12T12:15:29.593Z,44.71
2022-09-12T12:18:17.639Z,43.24
2022-09-12T12:20:44.600Z,43.87
2022-09-12T12:23:25.343Z,44.12
2022-09-12T12:25:55.059Z,43.09
2022-09-12T12:28:50.342Z,42.22
2022-09-12T12:31:18.276Z,42.61
2022-09-12T12:33:44.920Z,43.05
2022-09-12T12:36:38.663Z,44.32
2022-09-12T12:39:33.010Z,43.84
2022-09-12T12:42:03.520Z,43.56
2022-09-12T12:44:45.129Z,42.99
2022-09-12T12:47:27.533Z,43.71
2022-09-12T12:50:02.568Z,43.65
2022-09-12T12:52:32.756Z,44.16
2022-09-12T12:55:01.423Z,43.71
2022-09-12T12:57:33.907Z,43.27
2022-09-12T13:00:09.819Z,43.18
2022-09-12T13:02:41.107Z,43.01
2022-09-12T13:05:20.033Z,41.30
2022-09-12T13:07:48.289Z,41.53
2022-09-12T13:10:28.840Z,41.46
2022-09-12T13:13:02.712Z,40.77
2022-09-12T13:15:35.227Z,40.17
2022-09-12T13:18:05.765Z,40.32
2022-09-12T13:20:37.839Z,39.69
2022-09-12T13:23:04.377Z,39.61
2022-09-12T13:25:36.602Z,38.07
2022-09-12T13:28:05.352Z,37.64
2022-09-12T13:30:35.483Z,37.91
2022-09-12T13:33:17.027Z,35.57
2022-09-12T13:35:58.590Z,36.02
2022-09-12T13:38:31.279Z,34.82
2022-09-12T13:41:17.014Z,34.04
2022-09-12T13:43:48.955Z,34.93
2022-09-12T13:46:21.713Z,36.27
2022-09-12T13:48:48.875Z,35.70
2022-09-12T13:51:25.153Z,35.16
2022-09-12T13:53:56.299Z,36.05
2022-09-12T13:56:23.691Z,35.95
2022-09-12T13:58:58.861Z,33.78
2022-09-12T14:01:38.122Z,36.61
2022-09-12T14:04:40.593Z,36.17
2022-09-12T14:07:22.980Z,35.12
2022-09-12T14:09:55.814Z,35.72
2022-09-12T14:12:43.434Z,35.89
2022-09-12T14:15:24.551Z,33.88
2022-09-12T14:17:54.779Z,34.46
2022-09-12T14:20:23.391Z,34.88
2022-09-12T14:22:53.004Z,37.44
2022-09-12T14:25:23.678Z,38.02
2022-09-12T14:27:55.270Z,37.33
2022-09-12T14:30:36.856Z,37.64
2022-09-12T14:33:12.650Z,36.25
2022-09-12T14:36:16.349Z,34.33
2022-09-12T14:38:45.803Z,35.04
2022-09-12T14:41:20.762Z,35.98
2022-09-12T14:43:51.905Z,36.18
2022-09-12T14:46:35.086Z,36.61
2022-09-12T14:49:10.418Z,36.68
2022-09-12T14:51:51.213Z,37.13
2022-09-12T14:54:36.362Z,37.51
2022-09-12T14:57:26.222Z,37.99
2022-09-12T14:59:52.960Z,37.60
2022-09-12T15:02:22.192Z,37.61
2022-09-12T15:05:16.197Z,37.64
2022-09-12T15:07:46.515Z,36.32
2022-09-12T15:10:26.729Z,36.74
2022-09-12T15:13:05.560Z,37.03
2022-09-12T15:15:32.789Z,37.64
2022-09-12T15:18:01.408Z,38.31
2022-09-12T15:20:32.350Z,37.70
2022-09-12T15:22:59.160Z,38.00
2022-09-12T15:25:25.714Z,37.71
2022-09-12T15:27:53.593Z,38.45
2022-09-12T15:30:20.157Z,38.13
2022-09-12T15:32:46.801Z,37.55
2022-09-12T15:35:19.013Z,36.54
2022-09-12T15:37:45.851Z,36.73
2022-09-12T15:40:13.061Z,37.16
2022-09-12T15:42:40.339Z,36.37
2022-09-12T15:45:18.943Z,37.11
2022-09-12T15:47:45.767Z,37.49
2022-09-12T15:50:12.702Z,37.41
2022-09-12T15:52:39.405Z,37.88
2022-09-12T15:55:09.949Z,37.30
2022-09-12T15:57:36.501Z,37.57
2022-09-12T16:00:05.423Z,37.55
2022-09-12T16:02:38.567Z,38.04
2022-09-12T16:05:06.369Z,38.51
2022-09-12T16:07:32.959Z,38.04
2022-09-12T16:09:59.608Z,36.43
2022-09-12T16:12:26.241Z,36.71
2022-09-12T16:14:52.803Z,36.49
2022-09-12T16:17:19.438Z,36.79
2022-09-12T16:19:45.976Z,36.94
2022-09-12T16:22:12.615Z,36.82
2022-09-12T16:24:40.163Z,36.99
2022-09-12T16:27:07.008Z,36.60
2022-09-12T16:29:33.716Z,36.70
2022-09-12T16:32:00.382Z,36.89
2022-09-12T16:34:27.155Z,36.79
2022-09-12T16:36:53.791Z,37.10
2022-09-12T16:39:20.470Z,37.28
2022-09-12T16:41:47.027Z,37.54
2022-09-12T16:44:13.559Z,37.72
2022-09-12T16:46:40.211Z,38.08
2022-09-12T16:49:07.106Z,38.03
2022-09-12T16:51:37.319Z,37.81
2022-09-12T16:54:04.330Z,37.01
2022-09-12T16:56:31.028Z,34.98
2022-09-12T16:58:57.633Z,33.85
2022-09-12T17:01:26.154Z,34.62
2022-09-12T17:03:57.765Z,35.97
2022-09-12T17:06:25.511Z,36.06
2022-09-12T17:08:54.099Z,37.73
2022-09-12T17:11:30.850Z,39.80
2022-09-12T17:14:07.325Z,42.06
2022-09-12T17:16:39.872Z,43.70
2022-09-12T17:19:07.680Z,45.55
2022-09-12T17:21:35.450Z,47.13
2022-09-12T17:24:03.349Z,48.43
2022-09-12T17:26:30.062Z,49.56
2022-09-12T17:28:56.650Z,50.45
2022-09-12T17:31:23.338Z,51.17
2022-09-12T17:33:50.055Z,51.91
2022-09-12T17:36:17.957Z,52.65
2022-09-12T17:38:45.980Z,52.98
2022-09-12T17:41:17.662Z,53.32
2022-09-12T17:43:50.904Z,53.84
2022-09-12T17:46:19.062Z,54.11
2022-09-12T17:48:51.461Z,54.81
2022-09-12T17:51:18.158Z,55.51
2022-09-12T17:53:44.754Z,55.98
2022-09-12T17:56:11.869Z,56.66
2022-09-12T17:58:38.897Z,57.20
2022-09-12T18:01:25.216Z,57.89
2022-09-12T18:03:56.166Z,58.34
2022-09-12T18:06:23.716Z,58.89
2022-09-12T18:08:50.467Z,59.14
2022-09-12T18:11:17.510Z,59.49
2022-09-12T18:13:44.103Z,59.75
2022-09-12T18:16:13.568Z,60.23
2022-09-12T18:18:40.377Z,60.68
2022-09-12T18:21:08.417Z,61.04
2022-09-12T18:23:35.170Z,61.50
2022-09-12T18:26:08.678Z,61.68
2022-09-12T18:28:38.194Z,62.32
2022-09-12T18:31:11.512Z,62.58
2022-09-12T18:33:38.182Z,62.63
2022-09-12T18:36:06.857Z,63.28
2022-09-12T18:38:33.728Z,63.40
2022-09-12T18:41:11.679Z,63.65
2022-09-12T18:43:38.827Z,64.04
2022-09-12T18:46:12.078Z,64.00
2022-09-12T18:48:38.954Z,64.39
2022-09-12T18:51:14.800Z,64.70
2022-09-12T18:53:42.571Z,64.77
2022-09-12T18:56:13.861Z,64.71
2022-09-12T18:58:42.028Z,64.78
2022-09-12T19:01:17.027Z,65.10
2022-09-12T19:03:44.348Z,65.51
2022-09-12T19:06:17.835Z,65.67
2022-09-12T19:08:45.631Z,65.79
2022-09-12T19:11:13.159Z,66.00
2022-09-12T19:13:42.064Z,66.14
2022-09-12T19:16:11.108Z,66.18
2022-09-12T19:18:39.015Z,66.37
2022-09-12T19:21:07.882Z,66.36
2022-09-12T19:23:35.496Z,66.40
2022-09-12T19:26:08.024Z,66.41
2022-09-12T19:28:35.042Z,66.58
2022-09-12T19:31:07.070Z,66.78
2022-09-12T19:33:34.161Z,66.75
2022-09-12T19:36:03.396Z,66.49
2022-09-12T19:38:30.296Z,66.83
2022-09-12T19:40:58.422Z,67.15
2022-09-12T19:43:25.949Z,67.06
2022-09-12T19:45:53.052Z,67.36
2022-09-12T19:48:20.383Z,67.54
2022-09-12T19:50:47.385Z,67.65
2022-09-12T19:53:15.023Z,67.88
2022-09-12T19:55:41.677Z,67.98
2022-09-12T19:58:08.381Z,68.08
2022-09-12T20:00:36.036Z,68.03
2022-09-12T20:03:03.989Z,68.24
2022-09-12T20:05:32.899Z,68.29
2022-09-12T20:07:59.820Z,68.52
2022-09-12T20:10:26.622Z,68.66
2022-09-12T20:12:53.241Z,68.60
2022-09-12T20:15:19.781Z,68.82
2022-09-12T20:17:46.370Z,69.14
2022-09-12T20:20:12.948Z,69.24
2022-09-12T20:22:40.285Z,69.06
2022-09-12T20:25:07.546Z,69.43
2022-09-12T20:27:34.189Z,69.74
2022-09-12T20:30:00.799Z,69.95
2022-09-12T20:32:28.955Z,69.77
2022-09-12T20:34:56.403Z,70.12
2022-09-12T20:37:23.704Z,70.26
2022-09-12T20:39:51.095Z,70.40
2022-09-12T20:42:17.859Z,70.26
2022-09-12T20:44:44.429Z,70.40
2022-09-12T20:47:11.203Z,70.57
2022-09-12T20:49:37.725Z,70.76
2022-09-12T20:52:04.670Z,70.79
2022-09-12T20:54:31.238Z,71.05
2022-09-12T20:56:57.816Z,71.37
2022-09-12T20:59:24.373Z,71.42
2022-09-12T21:01:51.112Z,71.65
2022-09-12T21:04:18.485Z,71.89
2022-09-12T21:06:45.075Z,72.32
2022-09-12T21:09:11.621Z,72.03
2022-09-12T21:11:38.217Z,72.37
2022-09-12T21:14:04.876Z,72.27
2022-09-12T21:16:31.798Z,72.91
2022-09-12T21:18:59.545Z,72.72
2022-09-12T21:21:26.659Z,72.59
2022-09-12T21:23:55.316Z,72.61
2022-09-12T21:26:21.874Z,72.69
2022-09-12T21:28:48.591Z,72.90
2022-09-12T21:31:15.242Z,72.81
2022-09-12T21:33:41.911Z,73.06
2022-09-12T21:36:09.644Z,72.91
2022-09-12T21:38:36.428Z,73.31
2022-09-12T21:41:08.778Z,73.70
2022-09-12T21:43:36.454Z,73.87
2022-09-12T21:46:03.964Z,74.18
2022-09-12T21:48:30.683Z,74.12
2022-09-12T21:50:57.433Z,73.90
2022-09-12T21:53:24.967Z,74.31
2022-09-12T21:55:51.797Z,74.41
2022-09-12T21:58:18.387Z,74.23
2022-09-12T22:00:45.233Z,74.80
2022-09-12T22:03:12.709Z,74.49
2022-09-12T22:05:43.200Z,74.75
2022-09-12T22:08:10.906Z,74.53
2022-09-12T22:10:38.542Z,74.67
2022-09-12T22:13:05.488Z,75.03
2022-09-12T22:15:40.946Z,74.90
2022-09-12T22:18:07.901Z,74.88
2022-09-12T22:20:34.505Z,74.67
2022-09-12T22:23:24.344Z,74.30
2022-09-12T22:25:55.504Z,74.80
2022-09-12T22:28:22.654Z,75.55
2022-09-12T22:30:49.267Z,75.67
2022-09-12T22:33:15.861Z,75.35
2022-09-12T22:35:42.491Z,75.59
2022-09-12T22:38:09.217Z,75.83
2022-09-12T22:40:35.776Z,76.20
2022-09-12T22:43:02.426Z,76.28
2022-09-12T22:45:29.314Z,76.21
2022-09-12T22:48:00.379Z,76.72
2022-09-12T22:50:27.639Z,76.66
2022-09-12T22:52:54.288Z,76.49
2022-09-12T22:55:20.977Z,76.46
2022-09-12T22:57:47.581Z,76.00
2022-09-12T23:00:14.987Z,76.29
2022-09-12T23:02:41.666Z,75.81
2022-09-12T23:05:08.581Z,75.77
2022-09-12T23:07:35.708Z,76.03
2022-09-12T23:10:02.397Z,75.69
2022-09-12T23:12:29.026Z,75.80
2022-09-12T23:14:55.572Z,75.87
2022-09-12T23:17:22.159Z,75.72
2022-09-12T23:19:48.725Z,76.06
2022-09-12T23:22:15.363Z,76.19
2022-09-12T23:24:41.894Z,76.19
2022-09-12T23:27:08.952Z,76.54
2022-09-12T23:29:35.780Z,76.39
2022-09-12T23:32:05.946Z,76.47
2022-09-12T23:34:33.660Z,76.73
2022-09-12T23:37:00.248Z,76.89
2022-09-12T23:39:26.843Z,76.89
2022-09-12T23:41:53.406Z,76.46
2022-09-12T23:44:19.967Z,76.17
2022-09-12T23:46:46.638Z,76.11
2022-09-12T23:49:13.406Z,76.09
2022-09-12T23:51:40.066Z,75.92
2022-09-12T23:54:06.709Z,75.95
2022-09-12T23:56:33.297Z,76.07
2022-09-12T23:59:00.036Z,76.22
